createdAt,value
2017-11-11T00:01:26.581Z,4.35
2017-11-11T00:03:54.356Z,4.33
2017-11-11T00:06:22.096Z,4.26
2017-11-11T00:08:49.837Z,4.37
2017-11-11T00:11:17.586Z,4.38
2017-11-11T00:13:45.324Z,4.43
2017-11-11T00:16:13.050Z,4.42
2017-11-11T00:18:40.835Z,4.37
2017-11-11T00:21:08.594Z,4.33
2017-11-11T00:23:36.428Z,4.35
2017-11-11T00:26:04.183Z,4.39
2017-11-11T00:28:31.894Z,4.38
2017-11-11T00:31:00.219Z,4.43
2017-11-11T00:33:27.908Z,4.46
2017-11-11T00:35:55.578Z,4.47
2017-11-11T00:38:23.318Z,4.43
2017-11-11T00:40:50.989Z,4.44
2017-11-11T00:43:18.740Z,4.45
2017-11-11T00:45:46.791Z,4.42
2017-11-11T00:48:14.495Z,4.37
2017-11-11T00:50:42.181Z,4.42
2017-11-11T00:53:09.923Z,4.37
2017-11-11T00:55:37.602Z,4.23
2017-11-11T00:58:05.441Z,4.35
2017-11-11T01:00:33.153Z,4.40
2017-11-11T01:03:00.903Z,4.42
2017-11-11T01:05:28.647Z,4.22
2017-11-11T01:07:56.373Z,4.30
2017-11-11T01:10:24.083Z,4.42
2017-11-11T01:12:51.832Z,4.45
2017-11-11T01:15:19.614Z,4.27
2017-11-11T01:17:47.334Z,4.19
2017-11-11T01:20:14.992Z,4.30
2017-11-11T01:22:42.704Z,4.41
2017-11-11T01:25:10.379Z,4.37
2017-11-11T01:27:38.156Z,4.26
2017-11-11T01:30:05.829Z,4.23
2017-11-11T01:32:33.655Z,4.21
2017-11-11T01:35:01.323Z,4.30
2017-11-11T01:37:29.017Z,4.36
2017-11-11T01:39:56.817Z,4.27
2017-11-11T01:42:24.542Z,4.16
2017-11-11T01:44:52.279Z,4.11
2017-11-11T01:47:20.024Z,4.22
2017-11-11T01:49:47.723Z,4.27
2017-11-11T01:52:15.454Z,4.31
2017-11-11T01:54:43.639Z,4.36
2017-11-11T01:57:11.349Z,4.24
2017-11-11T01:59:39.077Z,4.17
2017-11-11T02:02:06.816Z,4.20
2017-11-11T02:04:34.690Z,4.30
2017-11-11T02:07:02.525Z,4.31
2017-11-11T02:09:30.247Z,4.32
2017-11-11T02:11:57.978Z,4.30
2017-11-11T02:14:25.717Z,4.33
2017-11-11T02:16:53.384Z,4.31
2017-11-11T02:19:21.181Z,4.34
2017-11-11T02:21:49.810Z,4.23
2017-11-11T02:24:17.512Z,4.32
2017-11-11T02:26:45.320Z,4.37
2017-11-11T02:29:13.080Z,4.39
2017-11-11T02:31:40.789Z,4.36
2017-11-11T02:34:09.342Z,4.32
2017-11-11T02:36:37.094Z,4.36
2017-11-11T02:39:04.962Z,4.38
2017-11-11T02:41:32.681Z,4.29
2017-11-11T02:44:00.493Z,4.22
2017-11-11T02:46:28.217Z,4.20
2017-11-11T02:48:56.065Z,4.20
2017-11-11T02:51:23.878Z,4.33
2017-11-11T02:53:51.638Z,4.40
2017-11-11T02:56:19.427Z,4.39
2017-11-11T02:58:47.185Z,4.40
2017-11-11T03:01:15.845Z,4.36
2017-11-11T03:03:43.916Z,4.40
2017-11-11T03:06:11.597Z,4.40
2017-11-11T03:08:39.288Z,4.42
2017-11-11T03:11:07.060Z,4.44
2017-11-11T03:13:35.956Z,4.42
2017-11-11T03:16:03.640Z,4.40
2017-11-11T03:18:31.381Z,4.45
2017-11-11T03:20:59.237Z,4.41
2017-11-11T03:23:26.895Z,4.32
2017-11-11T03:25:54.565Z,4.23
2017-11-11T03:28:23.365Z,4.34
2017-11-11T03:30:51.110Z,4.35
2017-11-11T03:33:18.821Z,4.40
2017-11-11T03:35:46.492Z,4.37
2017-11-11T03:38:14.199Z,4.39
2017-11-11T03:40:41.921Z,4.42
2017-11-11T03:43:13.378Z,4.50
2017-11-11T03:45:41.085Z,4.55
2017-11-11T03:48:09.714Z,4.51
2017-11-11T03:50:37.377Z,4.52
2017-11-11T03:53:05.380Z,4.50
2017-11-11T03:55:33.066Z,4.46
2017-11-11T03:58:00.799Z,4.37
2017-11-11T04:00:28.498Z,4.40
2017-11-11T04:02:56.256Z,4.43
2017-11-11T04:05:23.921Z,4.49
2017-11-11T04:07:51.821Z,4.51
2017-11-11T04:10:19.635Z,4.50
2017-11-11T04:12:47.464Z,4.56
2017-11-11T04:15:15.843Z,4.60
2017-11-11T04:17:43.621Z,4.64
2017-11-11T04:20:11.383Z,4.62
2017-11-11T04:22:39.344Z,4.59
2017-11-11T04:25:07.049Z,4.56
2017-11-11T04:27:34.792Z,4.52
2017-11-11T04:30:02.506Z,4.48
2017-11-11T04:32:30.291Z,4.48
2017-11-11T04:34:58.060Z,4.47
2017-11-11T04:37:26.002Z,4.51
2017-11-11T04:39:53.729Z,4.56
2017-11-11T04:42:21.465Z,4.45
2017-11-11T04:44:49.213Z,4.49
2017-11-11T04:47:18.011Z,4.51
2017-11-11T04:49:45.788Z,4.52
2017-11-11T04:52:13.574Z,4.56
2017-11-11T04:54:41.307Z,4.78
2017-11-11T04:57:09.107Z,4.48
2017-11-11T04:59:36.865Z,4.49
2017-11-11T05:02:04.618Z,4.52
2017-11-11T05:04:32.377Z,4.43
2017-11-11T05:07:00.095Z,4.48
2017-11-11T05:09:27.782Z,4.59
2017-11-11T05:11:55.938Z,4.62
2017-11-11T05:14:23.815Z,4.64
2017-11-11T05:16:51.551Z,4.66
2017-11-11T05:19:19.313Z,4.62
2017-11-11T05:21:47.028Z,4.66
2017-11-11T05:24:14.817Z,4.70
2017-11-11T05:26:42.528Z,4.72
2017-11-11T05:29:10.233Z,4.66
2017-11-11T05:31:38.018Z,4.69
2017-11-11T05:34:05.679Z,4.64
2017-11-11T05:36:33.399Z,4.64
2017-11-11T05:39:01.140Z,4.63
2017-11-11T05:41:28.811Z,4.65
2017-11-11T05:43:56.563Z,4.65
2017-11-11T05:46:24.254Z,4.68
2017-11-11T05:48:52.153Z,4.63
2017-11-11T05:51:19.928Z,4.67
2017-11-11T05:53:47.748Z,4.69
2017-11-11T05:56:15.465Z,4.71
2017-11-11T05:58:43.169Z,4.68
2017-11-11T06:01:10.923Z,4.64
2017-11-11T06:03:39.121Z,4.65
2017-11-11T06:06:07.864Z,4.57
2017-11-11T06:08:35.695Z,4.45
2017-11-11T06:11:03.418Z,4.48
2017-11-11T06:13:31.186Z,4.42
2017-11-11T06:15:58.912Z,4.49
2017-11-11T06:18:26.586Z,4.47
2017-11-11T06:20:54.410Z,4.54
2017-11-11T06:23:22.135Z,4.64
2017-11-11T06:25:49.863Z,4.61
2017-11-11T06:28:17.626Z,4.68
2017-11-11T06:30:45.360Z,4.45
2017-11-11T06:33:14.264Z,4.39
2017-11-11T06:35:42.074Z,4.35
2017-11-11T06:38:09.759Z,4.34
2017-11-11T06:40:37.546Z,4.43
2017-11-11T06:43:05.324Z,4.59
2017-11-11T06:45:33.096Z,4.54
2017-11-11T06:48:00.961Z,4.40
2017-11-11T06:50:28.749Z,4.41
2017-11-11T06:52:56.493Z,4.39
2017-11-11T06:55:24.282Z,4.42
2017-11-11T06:57:51.976Z,4.41
2017-11-11T07:00:19.726Z,4.48
2017-11-11T07:02:47.484Z,4.51
2017-11-11T07:05:15.226Z,4.59
2017-11-11T07:07:42.984Z,4.53
2017-11-11T07:10:10.938Z,4.66
2017-11-11T07:12:38.726Z,4.67
2017-11-11T07:15:06.466Z,4.74
2017-11-11T07:17:34.155Z,4.81
2017-11-11T07:20:01.941Z,4.77
2017-11-11T07:22:29.717Z,4.75
2017-11-11T07:24:57.490Z,4.79
2017-11-11T07:27:25.232Z,4.85
2017-11-11T07:29:52.978Z,4.85
2017-11-11T07:32:20.698Z,4.81
2017-11-11T07:34:48.447Z,4.89
2017-11-11T07:37:16.152Z,4.80
2017-11-11T07:39:43.894Z,4.90
2017-11-11T07:42:11.582Z,4.97
2017-11-11T07:44:39.353Z,4.97
2017-11-11T07:47:07.062Z,4.80
2017-11-11T07:49:35.842Z,4.88
2017-11-11T07:52:03.617Z,4.70
2017-11-11T07:54:31.457Z,4.70
2017-11-11T07:56:59.207Z,4.73
2017-11-11T07:59:26.957Z,4.87
2017-11-11T08:01:54.665Z,4.81
2017-11-11T08:04:22.387Z,4.91
2017-11-11T08:06:50.113Z,4.95
2017-11-11T08:09:18.511Z,4.84
2017-11-11T08:11:46.225Z,4.96
2017-11-11T08:14:14.007Z,5.10
2017-11-11T08:16:41.768Z,5.18
2017-11-11T08:19:09.509Z,5.19
2017-11-11T08:21:37.283Z,5.23
2017-11-11T08:24:04.990Z,5.31
2017-11-11T08:26:32.762Z,5.39
2017-11-11T08:29:00.614Z,5.41
2017-11-11T08:31:28.418Z,5.55
2017-11-11T08:33:56.217Z,5.63
2017-11-11T08:36:24.110Z,5.48
2017-11-11T08:38:52.125Z,5.39
2017-11-11T08:41:19.865Z,5.32
2017-11-11T08:43:47.564Z,5.54
2017-11-11T08:46:15.384Z,5.63
2017-11-11T08:48:43.164Z,6.07
2017-11-11T08:51:10.866Z,6.08
2017-11-11T08:53:38.631Z,5.87
2017-11-11T08:56:06.406Z,6.04
2017-11-11T08:58:34.082Z,5.80
2017-11-11T09:01:01.815Z,5.81
2017-11-11T09:03:30.829Z,6.12
2017-11-11T09:05:58.593Z,6.14
2017-11-11T09:08:26.327Z,6.34
2017-11-11T09:10:54.140Z,6.50
2017-11-11T09:13:22.191Z,6.54
2017-11-11T09:15:49.946Z,6.43
2017-11-11T09:18:17.685Z,6.71
2017-11-11T09:20:46.307Z,6.60
2017-11-11T09:23:14.027Z,6.49
2017-11-11T09:25:41.825Z,6.56
2017-11-11T09:28:09.488Z,6.86
2017-11-11T09:30:37.194Z,6.74
2017-11-11T09:33:04.959Z,6.98
2017-11-11T09:35:32.657Z,6.90
2017-11-11T09:38:00.422Z,6.62
2017-11-11T09:40:28.133Z,6.97
2017-11-11T09:42:56.282Z,7.10
2017-11-11T09:45:23.985Z,7.21
2017-11-11T09:47:52.558Z,7.22
2017-11-11T09:50:20.278Z,6.83
2017-11-11T09:52:48.026Z,6.95
2017-11-11T09:55:15.926Z,6.82
2017-11-11T09:57:44.471Z,6.57
2017-11-11T10:00:12.269Z,6.65
2017-11-11T10:02:39.982Z,6.51
2017-11-11T10:05:07.718Z,6.50
2017-11-11T10:07:35.421Z,6.44
2017-11-11T10:10:04.156Z,6.80
2017-11-11T10:12:32.990Z,6.90
2017-11-11T10:15:00.737Z,6.56
2017-11-11T10:17:28.494Z,6.87
2017-11-11T10:19:56.233Z,6.53
2017-11-11T10:22:24.433Z,6.66
2017-11-11T10:24:52.170Z,6.70
2017-11-11T10:27:19.943Z,6.85
2017-11-11T10:29:47.639Z,6.59
2017-11-11T10:32:15.298Z,6.57
2017-11-11T10:34:43.821Z,6.48
2017-11-11T10:37:11.577Z,6.53
2017-11-11T10:39:40.280Z,6.84
2017-11-11T10:42:08.019Z,6.92
2017-11-11T10:44:35.814Z,6.60
2017-11-11T10:47:03.580Z,6.92
2017-11-11T10:49:31.282Z,6.94
2017-11-11T10:51:59.031Z,6.77
2017-11-11T10:54:26.813Z,6.74
2017-11-11T10:56:54.538Z,6.74
2017-11-11T10:59:22.708Z,6.76
2017-11-11T11:01:50.419Z,6.57
2017-11-11T11:04:18.126Z,6.85
2017-11-11T11:06:45.924Z,6.70
2017-11-11T11:09:13.607Z,6.69
2017-11-11T11:11:41.378Z,6.94
2017-11-11T11:14:09.144Z,7.05
2017-11-11T11:16:36.894Z,6.95
2017-11-11T11:19:05.467Z,6.87
2017-11-11T11:21:33.289Z,7.10
2017-11-11T11:24:01.014Z,7.21
2017-11-11T11:26:28.901Z,7.10
2017-11-11T11:28:56.693Z,7.01
2017-11-11T11:31:24.471Z,6.94
2017-11-11T11:33:52.175Z,6.92
2017-11-11T11:36:20.189Z,6.97
2017-11-11T11:38:47.890Z,7.10
2017-11-11T11:41:15.682Z,7.18
2017-11-11T11:43:43.432Z,7.07
2017-11-11T11:46:11.151Z,6.86
2017-11-11T11:48:38.874Z,7.09
2017-11-11T11:51:06.594Z,7.00
2017-11-11T11:53:34.345Z,6.96
2017-11-11T11:56:02.056Z,7.00
2017-11-11T11:58:29.816Z,6.89
2017-11-11T12:00:57.524Z,6.92
2017-11-11T12:03:25.695Z,6.95
2017-11-11T12:05:53.563Z,6.87
2017-11-11T12:08:21.297Z,7.01
2017-11-11T12:10:49.072Z,6.98
2017-11-11T12:13:16.813Z,6.98
2017-11-11T12:15:44.534Z,6.95
2017-11-11T12:18:12.279Z,6.89
2017-11-11T12:20:41.424Z,6.77
2017-11-11T12:23:09.286Z,6.89
2017-11-11T12:25:37.052Z,6.84
2017-11-11T12:28:05.217Z,7.05
2017-11-11T12:30:33.004Z,7.05
2017-11-11T12:33:00.793Z,6.93
2017-11-11T12:35:28.569Z,6.93
2017-11-11T12:37:56.497Z,7.22
2017-11-11T12:40:24.339Z,7.26
2017-11-11T12:42:53.292Z,7.04
2017-11-11T12:45:21.119Z,7.06
2017-11-11T12:47:49.971Z,7.12
2017-11-11T12:50:17.816Z,6.89
2017-11-11T12:52:45.660Z,6.90
2017-11-11T12:55:13.495Z,6.92
2017-11-11T12:57:41.359Z,7.01
2017-11-11T13:00:09.172Z,7.01
2017-11-11T13:02:37.253Z,7.08
2017-11-11T13:05:05.027Z,6.98
2017-11-11T13:07:33.905Z,6.90
2017-11-11T13:10:01.670Z,7.03
2017-11-11T13:12:29.412Z,6.82
2017-11-11T13:14:57.242Z,6.89
2017-11-11T13:17:25.190Z,7.11
2017-11-11T13:19:52.948Z,6.92
2017-11-11T13:22:20.727Z,6.85
2017-11-11T13:24:48.581Z,7.21
2017-11-11T13:27:17.342Z,7.40
2017-11-11T13:29:45.459Z,7.17
2017-11-11T13:32:13.327Z,7.08
2017-11-11T13:34:41.438Z,6.93
2017-11-11T13:37:09.341Z,7.01
2017-11-11T13:39:37.132Z,7.09
2017-11-11T13:42:05.050Z,7.11
2017-11-11T13:44:32.871Z,7.03
2017-11-11T13:47:00.684Z,7.12
2017-11-11T13:49:28.374Z,7.07
2017-11-11T13:51:56.145Z,7.14
2017-11-11T13:54:24.538Z,7.01
2017-11-11T13:56:52.297Z,7.00
2017-11-11T13:59:20.265Z,6.88
2017-11-11T14:01:47.951Z,7.10
2017-11-11T14:04:15.748Z,7.04
2017-11-11T14:06:44.159Z,6.93
2017-11-11T14:09:11.849Z,6.94
2017-11-11T14:11:39.634Z,6.98
2017-11-11T14:14:07.368Z,6.97
2017-11-11T14:16:35.176Z,7.00
2017-11-11T14:19:03.929Z,6.89
2017-11-11T14:21:31.707Z,7.01
2017-11-11T14:24:00.541Z,6.93
2017-11-11T14:26:28.483Z,6.77
2017-11-11T14:28:56.494Z,6.88
2017-11-11T14:31:24.188Z,7.13
2017-11-11T14:33:51.961Z,6.88
2017-11-11T14:36:20.339Z,6.84
2017-11-11T14:38:48.125Z,6.85
2017-11-11T14:41:15.902Z,6.86
2017-11-11T14:43:44.766Z,6.86
2017-11-11T14:46:12.857Z,6.82
2017-11-11T14:48:40.646Z,6.72
2017-11-11T14:51:09.188Z,6.70
2017-11-11T14:53:36.992Z,6.83
2017-11-11T14:56:04.902Z,6.61
2017-11-11T14:58:33.873Z,6.65
2017-11-11T15:01:02.642Z,6.67
2017-11-11T15:03:31.279Z,6.54
2017-11-11T15:05:59.020Z,6.45
2017-11-11T15:08:26.849Z,6.37
2017-11-11T15:10:54.625Z,6.38
2017-11-11T15:13:23.557Z,6.38
2017-11-11T15:15:51.523Z,6.32
2017-11-11T15:18:19.299Z,6.30
2017-11-11T15:20:47.017Z,6.40
2017-11-11T15:23:14.712Z,6.41
2017-11-11T15:25:42.489Z,6.38
2017-11-11T15:28:10.278Z,6.38
2017-11-11T15:30:38.040Z,6.40
2017-11-11T15:33:05.947Z,6.41
2017-11-11T15:35:33.667Z,6.40
2017-11-11T15:38:01.428Z,6.29
2017-11-11T15:40:29.230Z,6.34
2017-11-11T15:42:56.916Z,6.22
2017-11-11T15:45:24.683Z,6.12
2017-11-11T15:47:52.389Z,6.13
2017-11-11T15:50:20.145Z,6.10
2017-11-11T15:52:47.894Z,6.07
2017-11-11T15:55:16.689Z,6.03
2017-11-11T15:57:45.266Z,6.02
2017-11-11T16:00:14.384Z,5.99
2017-11-11T16:02:43.844Z,5.99
2017-11-11T16:05:11.611Z,6.00
2017-11-11T16:07:39.314Z,5.95
2017-11-11T16:10:07.049Z,5.98
2017-11-11T16:12:34.755Z,6.01
2017-11-11T16:15:02.575Z,5.98
2017-11-11T16:17:31.374Z,5.93
2017-11-11T16:19:59.054Z,5.91
2017-11-11T16:22:26.820Z,5.90
2017-11-11T16:24:55.552Z,5.93
2017-11-11T16:27:23.359Z,5.93
2017-11-11T16:29:53.897Z,6.00
2017-11-11T16:32:22.800Z,5.91
2017-11-11T16:34:51.436Z,5.90
2017-11-11T16:37:19.512Z,5.87
2017-11-11T16:39:48.870Z,5.86
2017-11-11T16:42:16.568Z,5.79
2017-11-11T16:44:44.366Z,5.79
2017-11-11T16:47:12.238Z,5.79
2017-11-11T16:49:41.093Z,5.73
2017-11-11T16:52:09.450Z,5.84
2017-11-11T16:54:38.077Z,5.77
2017-11-11T16:57:05.850Z,5.80
2017-11-11T16:59:33.573Z,5.78
2017-11-11T17:02:02.617Z,5.79
2017-11-11T17:04:30.440Z,5.74
2017-11-11T17:06:59.364Z,5.65
2017-11-11T17:09:27.123Z,5.64
2017-11-11T17:11:54.807Z,5.59
2017-11-11T17:14:22.557Z,5.67
2017-11-11T17:16:51.268Z,5.62
2017-11-11T17:19:18.958Z,5.64
2017-11-11T17:21:46.764Z,5.65
2017-11-11T17:24:14.537Z,5.66
2017-11-11T17:26:42.221Z,5.62
2017-11-11T17:29:09.994Z,5.54
2017-11-11T17:31:37.716Z,5.49
2017-11-11T17:34:05.502Z,5.57
2017-11-11T17:36:33.261Z,5.50
2017-11-11T17:39:01.130Z,5.46
2017-11-11T17:41:30.248Z,5.38
2017-11-11T17:43:58.034Z,5.33
2017-11-11T17:46:25.818Z,5.41
2017-11-11T17:48:53.581Z,5.41
2017-11-11T17:51:21.431Z,5.42
2017-11-11T17:53:49.328Z,5.45
2017-11-11T17:56:17.081Z,5.44
2017-11-11T17:58:44.886Z,5.43
2017-11-11T18:01:12.630Z,5.37
2017-11-11T18:03:41.375Z,5.40
2017-11-11T18:06:09.224Z,5.40
2017-11-11T18:08:36.952Z,5.38
2017-11-11T18:11:05.808Z,5.38
2017-11-11T18:13:33.645Z,5.34
2017-11-11T18:16:02.572Z,5.39
2017-11-11T18:18:30.368Z,5.37
2017-11-11T18:20:59.722Z,5.39
2017-11-11T18:23:28.165Z,5.40
2017-11-11T18:25:55.856Z,5.38
2017-11-11T18:28:23.640Z,5.38
2017-11-11T18:30:52.390Z,5.26
2017-11-11T18:33:20.169Z,5.30
2017-11-11T18:35:48.594Z,5.28
2017-11-11T18:38:18.440Z,5.09
2017-11-11T18:40:47.907Z,5.21
2017-11-11T18:43:16.426Z,5.27
2017-11-11T18:45:44.391Z,5.21
2017-11-11T18:50:52.769Z,5.19
2017-11-11T18:53:22.013Z,5.17
2017-11-11T18:55:50.590Z,5.19
2017-11-11T18:58:19.166Z,5.20
2017-11-11T19:00:50.143Z,5.14
2017-11-11T19:03:17.981Z,5.12
2017-11-11T19:05:45.755Z,5.12
2017-11-11T19:08:14.527Z,5.05
2017-11-11T19:10:42.457Z,5.04
2017-11-11T19:13:11.445Z,5.13
2017-11-11T19:15:39.741Z,5.11
2017-11-11T19:18:07.799Z,5.11
2017-11-11T19:20:35.685Z,5.06
2017-11-11T19:23:03.504Z,5.00
2017-11-11T19:25:32.267Z,5.00
2017-11-11T19:28:00.096Z,5.02
2017-11-11T19:30:29.161Z,5.06
2017-11-11T19:32:56.923Z,4.95
2017-11-11T19:35:24.698Z,4.95
2017-11-11T19:37:52.448Z,4.86
2017-11-11T19:40:20.443Z,4.95
2017-11-11T19:42:48.336Z,4.99
2017-11-11T19:45:16.421Z,4.98
2017-11-11T19:47:44.260Z,4.96
2017-11-11T19:50:12.014Z,5.00
2017-11-11T19:52:40.009Z,5.06
2017-11-11T19:55:08.660Z,5.15
2017-11-11T19:57:36.645Z,5.13
2017-11-11T20:00:04.502Z,5.08
2017-11-11T20:02:33.163Z,5.05
2017-11-11T20:05:01.065Z,5.06
2017-11-11T20:07:29.156Z,5.01
2017-11-11T20:09:56.916Z,4.94
2017-11-11T20:12:25.839Z,4.96
2017-11-11T20:14:53.761Z,4.98
2017-11-11T20:17:22.511Z,5.04
2017-11-11T20:19:50.575Z,5.03
2017-11-11T20:22:19.285Z,5.05
2017-11-11T20:24:47.600Z,5.13
2017-11-11T20:27:15.437Z,5.10
2017-11-11T20:29:46.517Z,5.09
2017-11-11T20:32:14.341Z,5.05
2017-11-11T20:34:42.106Z,5.01
2017-11-11T20:37:10.885Z,5.05
2017-11-11T20:39:38.712Z,5.03
2017-11-11T20:42:06.534Z,5.02
2017-11-11T20:44:34.350Z,5.01
2017-11-11T20:47:02.156Z,4.99
2017-11-11T20:49:29.944Z,4.99
2017-11-11T20:51:57.847Z,4.95
2017-11-11T20:54:25.542Z,4.94
2017-11-11T20:56:53.308Z,4.95
2017-11-11T20:59:21.013Z,4.98
2017-11-11T21:01:49.602Z,5.01
2017-11-11T21:04:17.340Z,4.87
2017-11-11T21:06:45.040Z,4.88
2017-11-11T21:09:12.805Z,4.93
2017-11-11T21:11:40.554Z,4.82
2017-11-11T21:14:08.275Z,4.77
2017-11-11T21:16:36.080Z,4.88
2017-11-11T21:19:03.889Z,4.92
2017-11-11T21:21:31.774Z,4.96
2017-11-11T21:23:59.616Z,4.74
2017-11-11T21:26:27.522Z,4.86
2017-11-11T21:28:55.306Z,4.95
2017-11-11T21:31:23.259Z,4.99
2017-11-11T21:33:51.062Z,5.04
2017-11-11T21:36:18.820Z,5.02
2017-11-11T21:38:46.640Z,4.98
2017-11-11T21:41:14.318Z,4.97
2017-11-11T21:43:42.108Z,5.00
2017-11-11T21:46:09.819Z,4.93
2017-11-11T21:48:37.550Z,4.98
2017-11-11T21:51:05.397Z,4.96
2017-11-11T21:53:33.100Z,4.94
2017-11-11T21:56:00.791Z,4.96
2017-11-11T21:58:29.230Z,4.95
2017-11-11T22:00:57.044Z,4.94
2017-11-11T22:03:26.616Z,4.84
2017-11-11T22:05:54.370Z,4.76
2017-11-11T22:08:22.049Z,4.80
2017-11-11T22:10:49.778Z,4.75
2017-11-11T22:13:18.173Z,4.72
2017-11-11T22:15:45.881Z,4.67
2017-11-11T22:18:13.608Z,4.79
2017-11-11T22:20:41.389Z,4.87
2017-11-11T22:23:09.683Z,4.91
2017-11-11T22:25:37.540Z,4.96
2017-11-11T22:28:05.243Z,4.91
2017-11-11T22:30:32.914Z,4.82
2017-11-11T22:33:00.668Z,4.90
2017-11-11T22:35:28.366Z,4.97
2017-11-11T22:37:56.126Z,4.97
2017-11-11T22:40:24.226Z,4.98
2017-11-11T22:42:51.993Z,4.99
2017-11-11T22:45:20.019Z,5.00
2017-11-11T22:47:47.802Z,5.03
2017-11-11T22:50:16.547Z,5.02
2017-11-11T22:52:44.687Z,4.99
2017-11-11T22:55:12.429Z,4.82
2017-11-11T22:57:40.112Z,4.94
2017-11-11T23:00:07.892Z,4.90
2017-11-11T23:02:35.576Z,4.87
2017-11-11T23:05:03.355Z,4.86
2017-11-11T23:07:31.025Z,4.82
2017-11-11T23:09:58.749Z,4.82
2017-11-11T23:12:26.427Z,4.94
2017-11-11T23:14:54.152Z,4.91
2017-11-11T23:17:21.851Z,4.96
2017-11-11T23:19:49.576Z,5.01
2017-11-11T23:22:17.354Z,5.00
2017-11-11T23:24:45.047Z,5.02
2017-11-11T23:27:12.741Z,4.96
2017-11-11T23:29:40.456Z,5.01
2017-11-11T23:32:08.178Z,5.01
2017-11-11T23:34:35.870Z,4.97
2017-11-11T23:37:03.593Z,4.97
2017-11-11T23:39:31.319Z,5.01
2017-11-11T23:41:59.015Z,5.03
2017-11-11T23:44:26.774Z,5.08
2017-11-11T23:46:54.520Z,5.07
2017-11-11T23:49:22.266Z,5.02
2017-11-11T23:51:49.928Z,5.01
2017-11-11T23:54:17.652Z,5.03
2017-11-11T23:56:46.212Z,5.02
2017-11-11T23:59:13.977Z,5.05
